sensor_id;sensor_type;location;lat;lon;timestamp;P1;durP1;ratioP1;P2;durP2;ratioP2
65035;SDS011;51603;49.300;8.880;2022-09-30T00:01:26;7.97;;;7.20;;
65035;SDS011;51603;49.300;8.880;2022-09-30T00:03:53;10.50;;;6.60;;
65035;SDS011;51603;49.300;8.880;2022-09-30T00:06:19;7.73;;;7.03;;
65035;SDS011;51603;49.300;8.880;2022-09-30T00:08:45;9.13;;;6.23;;
65035;SDS011;51603;49.300;8.880;2022-09-30T00:11:12;6.30;;;5.50;;
65035;SDS011;51603;49.300;8.880;2022-09-30T00:13:40;7.03;;;6.30;;
65035;SDS011;51603;49.300;8.880;2022-09-30T00:16:07;7.80;;;7.03;;
65035;SDS011;51603;49.300;8.880;2022-09-30T00:18:34;9.10;;;8.17;;
65035;SDS011;51603;49.300;8.880;2022-09-30T00:21:01;11.97;;;9.00;;
65035;SDS011;51603;49.300;8.880;2022-09-30T00:23:26;11.70;;;7.70;;
65035;SDS011;51603;49.300;8.880;2022-09-30T00:26:00;9.70;;;8.63;;
65035;SDS011;51603;49.300;8.880;2022-09-30T00:28:27;10.03;;;9.07;;
65035;SDS011;51603;49.300;8.880;2022-09-30T00:30:53;10.70;;;7.97;;
65035;SDS011;51603;49.300;8.880;2022-09-30T00:33:23;10.63;;;8.50;;
65035;SDS011;51603;49.300;8.880;2022-09-30T00:35:48;10.23;;;8.70;;
65035;SDS011;51603;49.300;8.880;2022-09-30T00:38:14;8.93;;;8.00;;
65035;SDS011;51603;49.300;8.880;2022-09-30T00:40:39;8.43;;;7.63;;
65035;SDS011;51603;49.300;8.880;2022-09-30T00:43:12;8.17;;;7.23;;
65035;SDS011;51603;49.300;8.880;2022-09-30T00:45:39;9.67;;;7.67;;
65035;SDS011;51603;49.300;8.880;2022-09-30T00:48:15;8.87;;;7.70;;
65035;SDS011;51603;49.300;8.880;2022-09-30T00:50:45;7.83;;;7.13;;
65035;SDS011;51603;49.300;8.880;2022-09-30T00:53:17;16.77;;;7.90;;
65035;SDS011;51603;49.300;8.880;2022-09-30T00:55:50;8.63;;;7.40;;
65035;SDS011;51603;49.300;8.880;2022-09-30T01:03:56;9.83;;;7.87;;
65035;SDS011;51603;49.300;8.880;2022-09-30T01:06:26;8.90;;;6.90;;
65035;SDS011;51603;49.300;8.880;2022-09-30T01:08:52;11.23;;;6.60;;
65035;SDS011;51603;49.300;8.880;2022-09-30T01:11:19;7.53;;;6.73;;
65035;SDS011;51603;49.300;8.880;2022-09-30T01:13:46;7.50;;;6.40;;
65035;SDS011;51603;49.300;8.880;2022-09-30T01:16:25;7.70;;;6.90;;
65035;SDS011;51603;49.300;8.880;2022-09-30T01:25:02;8.07;;;7.17;;
65035;SDS011;51603;49.300;8.880;2022-09-30T01:39:14;13.27;;;10.60;;
65035;SDS011;51603;49.300;8.880;2022-09-30T01:47:06;13.77;;;10.47;;
65035;SDS011;51603;49.300;8.880;2022-09-30T01:50:18;9.90;;;8.87;;
65035;SDS011;51603;49.300;8.880;2022-09-30T01:52:40;8.80;;;8.00;;
65035;SDS011;51603;49.300;8.880;2022-09-30T01:58:10;11.70;;;8.57;;
65035;SDS011;51603;49.300;8.880;2022-09-30T02:00:41;14.43;;;9.47;;
65035;SDS011;51603;49.300;8.880;2022-09-30T02:03:14;10.43;;;9.33;;
65035;SDS011;51603;49.300;8.880;2022-09-30T02:06:09;10.30;;;8.50;;
65035;SDS011;51603;49.300;8.880;2022-09-30T02:11:37;10.47;;;8.63;;
65035;SDS011;51603;49.300;8.880;2022-09-30T02:16:54;9.87;;;7.70;;
65035;SDS011;51603;49.300;8.880;2022-09-30T02:19:37;8.43;;;7.07;;
65035;SDS011;51603;49.300;8.880;2022-09-30T02:22:06;6.80;;;6.20;;
65035;SDS011;51603;49.300;8.880;2022-09-30T02:24:36;7.67;;;6.97;;
65035;SDS011;51603;49.300;8.880;2022-09-30T02:27:04;7.03;;;6.00;;
65035;SDS011;51603;49.300;8.880;2022-09-30T02:29:36;9.77;;;7.90;;
65035;SDS011;51603;49.300;8.880;2022-09-30T02:32:08;9.77;;;6.40;;
65035;SDS011;51603;49.300;8.880;2022-09-30T02:34:39;10.20;;;7.17;;
65035;SDS011;51603;49.300;8.880;2022-09-30T02:37:14;7.57;;;6.10;;
65035;SDS011;51603;49.300;8.880;2022-09-30T02:42:45;7.23;;;6.53;;
65035;SDS011;51603;49.300;8.880;2022-09-30T02:45:12;8.23;;;6.00;;
65035;SDS011;51603;49.300;8.880;2022-09-30T02:47:46;6.20;;;5.60;;
65035;SDS011;51603;49.300;8.880;2022-09-30T02:50:33;5.33;;;4.80;;
65035;SDS011;51603;49.300;8.880;2022-09-30T02:53:12;5.60;;;5.07;;
65035;SDS011;51603;49.300;8.880;2022-09-30T02:56:05;6.67;;;5.97;;
65035;SDS011;51603;49.300;8.880;2022-09-30T02:58:32;5.73;;;5.13;;
65035;SDS011;51603;49.300;8.880;2022-09-30T03:01:03;6.07;;;5.40;;
65035;SDS011;51603;49.300;8.880;2022-09-30T03:06:11;7.07;;;6.23;;
65035;SDS011;51603;49.300;8.880;2022-09-30T03:08:37;10.13;;;5.20;;
65035;SDS011;51603;49.300;8.880;2022-09-30T03:11:03;7.30;;;6.60;;
65035;SDS011;51603;49.300;8.880;2022-09-30T03:19:04;6.67;;;6.03;;
65035;SDS011;51603;49.300;8.880;2022-09-30T03:30:24;7.50;;;5.50;;
65035;SDS011;51603;49.300;8.880;2022-09-30T03:35:32;5.20;;;4.70;;
65035;SDS011;51603;49.300;8.880;2022-09-30T03:38:31;5.77;;;5.17;;
65035;SDS011;51603;49.300;8.880;2022-09-30T03:41:03;6.63;;;5.27;;
65035;SDS011;51603;49.300;8.880;2022-09-30T03:44:04;6.80;;;5.43;;
65035;SDS011;51603;49.300;8.880;2022-09-30T03:46:38;7.17;;;6.33;;
65035;SDS011;51603;49.300;8.880;2022-09-30T03:49:20;7.63;;;6.90;;
65035;SDS011;51603;49.300;8.880;2022-09-30T03:51:49;8.77;;;7.87;;
65035;SDS011;51603;49.300;8.880;2022-09-30T03:54:15;6.87;;;6.20;;
65035;SDS011;51603;49.300;8.880;2022-09-30T03:56:41;10.00;;;5.43;;
65035;SDS011;51603;49.300;8.880;2022-09-30T03:59:10;6.23;;;5.20;;
65035;SDS011;51603;49.300;8.880;2022-09-30T04:01:41;10.40;;;6.30;;
65035;SDS011;51603;49.300;8.880;2022-09-30T04:04:06;9.00;;;8.27;;
65035;SDS011;51603;49.300;8.880;2022-09-30T04:06:32;7.20;;;6.50;;
65035;SDS011;51603;49.300;8.880;2022-09-30T04:08:58;6.43;;;5.83;;
65035;SDS011;51603;49.300;8.880;2022-09-30T04:11:23;12.50;;;5.40;;
65035;SDS011;51603;49.300;8.880;2022-09-30T04:13:49;8.53;;;5.33;;
65035;SDS011;51603;49.300;8.880;2022-09-30T04:16:14;6.30;;;5.30;;
65035;SDS011;51603;49.300;8.880;2022-09-30T04:18:40;8.27;;;5.40;;
65035;SDS011;51603;49.300;8.880;2022-09-30T04:21:07;5.73;;;5.17;;
65035;SDS011;51603;49.300;8.880;2022-09-30T04:23:35;6.00;;;5.40;;
65035;SDS011;51603;49.300;8.880;2022-09-30T04:26:01;10.10;;;5.97;;
65035;SDS011;51603;49.300;8.880;2022-09-30T04:28:27;6.63;;;5.90;;
65035;SDS011;51603;49.300;8.880;2022-09-30T04:30:53;7.47;;;6.03;;
65035;SDS011;51603;49.300;8.880;2022-09-30T04:33:18;7.93;;;5.70;;
65035;SDS011;51603;49.300;8.880;2022-09-30T04:35:44;7.03;;;6.03;;
65035;SDS011;51603;49.300;8.880;2022-09-30T04:38:09;8.00;;;6.30;;
65035;SDS011;51603;49.300;8.880;2022-09-30T04:40:36;6.00;;;5.13;;
65035;SDS011;51603;49.300;8.880;2022-09-30T04:43:02;8.40;;;6.10;;
65035;SDS011;51603;49.300;8.880;2022-09-30T04:45:29;7.57;;;5.43;;
65035;SDS011;51603;49.300;8.880;2022-09-30T04:47:54;8.13;;;5.73;;
65035;SDS011;51603;49.300;8.880;2022-09-30T04:50:20;5.80;;;5.30;;
65035;SDS011;51603;49.300;8.880;2022-09-30T04:52:45;7.07;;;6.43;;
65035;SDS011;51603;49.300;8.880;2022-09-30T04:55:11;6.33;;;5.73;;
65035;SDS011;51603;49.300;8.880;2022-09-30T04:57:37;5.80;;;5.30;;
65035;SDS011;51603;49.300;8.880;2022-09-30T05:00:03;5.33;;;4.80;;
65035;SDS011;51603;49.300;8.880;2022-09-30T05:02:32;6.80;;;6.20;;
65035;SDS011;51603;49.300;8.880;2022-09-30T05:04:58;6.67;;;5.20;;
65035;SDS011;51603;49.300;8.880;2022-09-30T05:07:24;6.00;;;5.30;;
65035;SDS011;51603;49.300;8.880;2022-09-30T05:09:50;7.60;;;4.50;;
65035;SDS011;51603;49.300;8.880;2022-09-30T05:12:17;6.80;;;5.60;;
65035;SDS011;51603;49.300;8.880;2022-09-30T05:14:42;7.50;;;5.33;;
65035;SDS011;51603;49.300;8.880;2022-09-30T05:17:08;7.03;;;5.10;;
65035;SDS011;51603;49.300;8.880;2022-09-30T05:19:34;6.50;;;5.60;;
65035;SDS011;51603;49.300;8.880;2022-09-30T05:21:59;5.80;;;5.27;;
65035;SDS011;51603;49.300;8.880;2022-09-30T05:24:25;8.13;;;5.23;;
65035;SDS011;51603;49.300;8.880;2022-09-30T05:26:50;6.60;;;5.87;;
65035;SDS011;51603;49.300;8.880;2022-09-30T05:29:16;9.60;;;5.63;;
65035;SDS011;51603;49.300;8.880;2022-09-30T05:31:41;5.10;;;4.60;;
65035;SDS011;51603;49.300;8.880;2022-09-30T05:34:07;6.73;;;4.63;;
65035;SDS011;51603;49.300;8.880;2022-09-30T05:36:32;8.00;;;5.27;;
65035;SDS011;51603;49.300;8.880;2022-09-30T05:38:58;6.93;;;5.70;;
65035;SDS011;51603;49.300;8.880;2022-09-30T05:41:23;5.73;;;4.93;;
65035;SDS011;51603;49.300;8.880;2022-09-30T05:43:49;11.60;;;5.40;;
65035;SDS011;51603;49.300;8.880;2022-09-30T05:46:18;6.17;;;4.60;;
65035;SDS011;51603;49.300;8.880;2022-09-30T05:48:44;9.57;;;4.70;;
65035;SDS011;51603;49.300;8.880;2022-09-30T05:51:10;5.23;;;4.73;;
65035;SDS011;51603;49.300;8.880;2022-09-30T05:53:37;5.60;;;5.10;;
65035;SDS011;51603;49.300;8.880;2022-09-30T05:56:03;8.53;;;5.47;;
65035;SDS011;51603;49.300;8.880;2022-09-30T05:58:33;5.87;;;5.27;;
65035;SDS011;51603;49.300;8.880;2022-09-30T06:01:03;6.03;;;5.53;;
65035;SDS011;51603;49.300;8.880;2022-09-30T06:03:33;5.83;;;5.17;;
65035;SDS011;51603;49.300;8.880;2022-09-30T06:05:59;7.13;;;5.67;;
65035;SDS011;51603;49.300;8.880;2022-09-30T06:08:25;6.80;;;6.07;;
65035;SDS011;51603;49.300;8.880;2022-09-30T06:10:51;7.57;;;5.90;;
65035;SDS011;51603;49.300;8.880;2022-09-30T06:13:16;15.87;;;7.40;;
65035;SDS011;51603;49.300;8.880;2022-09-30T06:15:42;8.43;;;7.50;;
65035;SDS011;51603;49.300;8.880;2022-09-30T06:18:08;10.57;;;9.30;;
65035;SDS011;51603;49.300;8.880;2022-09-30T06:20:34;11.97;;;9.40;;
65035;SDS011;51603;49.300;8.880;2022-09-30T06:23:01;12.57;;;10.87;;
65035;SDS011;51603;49.300;8.880;2022-09-30T06:25:28;11.23;;;9.90;;
65035;SDS011;51603;49.300;8.880;2022-09-30T06:27:54;9.70;;;8.60;;
65035;SDS011;51603;49.300;8.880;2022-09-30T06:30:20;13.50;;;8.47;;
65035;SDS011;51603;49.300;8.880;2022-09-30T06:32:46;8.53;;;6.97;;
65035;SDS011;51603;49.300;8.880;2022-09-30T06:35:11;8.30;;;7.53;;
65035;SDS011;51603;49.300;8.880;2022-09-30T06:37:37;10.37;;;7.60;;
65035;SDS011;51603;49.300;8.880;2022-09-30T06:40:03;9.57;;;7.70;;
65035;SDS011;51603;49.300;8.880;2022-09-30T06:42:30;11.70;;;9.30;;
65035;SDS011;51603;49.300;8.880;2022-09-30T06:44:55;9.40;;;8.47;;
65035;SDS011;51603;49.300;8.880;2022-09-30T06:47:21;11.80;;;9.50;;
65035;SDS011;51603;49.300;8.880;2022-09-30T06:49:47;12.03;;;9.17;;
65035;SDS011;51603;49.300;8.880;2022-09-30T06:52:12;10.67;;;8.97;;
65035;SDS011;51603;49.300;8.880;2022-09-30T06:54:38;11.63;;;9.33;;
65035;SDS011;51603;49.300;8.880;2022-09-30T06:57:07;10.67;;;8.73;;
65035;SDS011;51603;49.300;8.880;2022-09-30T06:59:33;10.97;;;9.00;;
65035;SDS011;51603;49.300;8.880;2022-09-30T07:01:59;11.77;;;8.30;;
65035;SDS011;51603;49.300;8.880;2022-09-30T07:04:24;11.33;;;9.90;;
65035;SDS011;51603;49.300;8.880;2022-09-30T07:06:50;13.33;;;9.40;;
65035;SDS011;51603;49.300;8.880;2022-09-30T07:09:16;12.23;;;10.73;;
65035;SDS011;51603;49.300;8.880;2022-09-30T07:11:41;11.20;;;10.03;;
65035;SDS011;51603;49.300;8.880;2022-09-30T07:14:07;10.77;;;9.30;;
65035;SDS011;51603;49.300;8.880;2022-09-30T07:16:34;10.70;;;9.60;;
65035;SDS011;51603;49.300;8.880;2022-09-30T07:19:00;16.30;;;11.13;;
65035;SDS011;51603;49.300;8.880;2022-09-30T07:21:26;13.23;;;10.50;;
65035;SDS011;51603;49.300;8.880;2022-09-30T07:23:52;14.03;;;12.17;;
65035;SDS011;51603;49.300;8.880;2022-09-30T07:26:23;14.40;;;11.53;;
65035;SDS011;51603;49.300;8.880;2022-09-30T07:28:49;11.83;;;10.53;;
65035;SDS011;51603;49.300;8.880;2022-09-30T07:31:17;16.00;;;10.97;;
65035;SDS011;51603;49.300;8.880;2022-09-30T07:33:45;11.00;;;9.87;;
65035;SDS011;51603;49.300;8.880;2022-09-30T07:36:11;12.43;;;11.13;;
65035;SDS011;51603;49.300;8.880;2022-09-30T07:38:42;12.87;;;11.53;;
65035;SDS011;51603;49.300;8.880;2022-09-30T07:41:13;24.50;;;13.67;;
65035;SDS011;51603;49.300;8.880;2022-09-30T07:43:44;15.17;;;12.40;;
65035;SDS011;51603;49.300;8.880;2022-09-30T07:46:12;13.83;;;12.43;;
65035;SDS011;51603;49.300;8.880;2022-09-30T07:48:41;13.73;;;12.13;;
65035;SDS011;51603;49.300;8.880;2022-09-30T07:51:29;13.67;;;12.37;;
65035;SDS011;51603;49.300;8.880;2022-09-30T07:53:58;15.97;;;14.43;;
65035;SDS011;51603;49.300;8.880;2022-09-30T07:56:29;14.30;;;12.80;;
65035;SDS011;51603;49.300;8.880;2022-09-30T07:58:56;18.77;;;13.90;;
65035;SDS011;51603;49.300;8.880;2022-09-30T08:01:24;17.93;;;15.33;;
65035;SDS011;51603;49.300;8.880;2022-09-30T08:03:54;17.40;;;14.93;;
65035;SDS011;51603;49.300;8.880;2022-09-30T08:06:21;15.97;;;14.30;;
65035;SDS011;51603;49.300;8.880;2022-09-30T08:08:49;16.73;;;14.30;;
65035;SDS011;51603;49.300;8.880;2022-09-30T08:11:17;15.00;;;13.40;;
65035;SDS011;51603;49.300;8.880;2022-09-30T08:13:42;14.27;;;12.87;;
65035;SDS011;51603;49.300;8.880;2022-09-30T08:16:08;15.33;;;13.73;;
65035;SDS011;51603;49.300;8.880;2022-09-30T08:18:34;15.30;;;13.77;;
65035;SDS011;51603;49.300;8.880;2022-09-30T08:21:03;16.60;;;14.80;;
65035;SDS011;51603;49.300;8.880;2022-09-30T08:23:30;15.20;;;13.60;;
65035;SDS011;51603;49.300;8.880;2022-09-30T08:28:31;14.57;;;13.07;;
65035;SDS011;51603;49.300;8.880;2022-09-30T08:31:06;12.50;;;11.30;;
65035;SDS011;51603;49.300;8.880;2022-09-30T08:33:34;16.87;;;13.40;;
65035;SDS011;51603;49.300;8.880;2022-09-30T08:36:01;14.30;;;12.83;;
65035;SDS011;51603;49.300;8.880;2022-09-30T08:38:32;15.40;;;13.70;;
65035;SDS011;51603;49.300;8.880;2022-09-30T08:41:16;13.47;;;12.07;;
65035;SDS011;51603;49.300;8.880;2022-09-30T08:52:31;15.33;;;13.53;;
65035;SDS011;51603;49.300;8.880;2022-09-30T08:55:00;13.17;;;11.70;;
65035;SDS011;51603;49.300;8.880;2022-09-30T08:57:27;14.60;;;12.90;;
65035;SDS011;51603;49.300;8.880;2022-09-30T09:00:00;13.73;;;12.33;;
65035;SDS011;51603;49.300;8.880;2022-09-30T09:02:31;13.93;;;12.50;;
65035;SDS011;51603;49.300;8.880;2022-09-30T09:05:09;13.90;;;12.50;;
65035;SDS011;51603;49.300;8.880;2022-09-30T09:07:51;14.43;;;12.33;;
65035;SDS011;51603;49.300;8.880;2022-09-30T09:10:29;12.40;;;10.80;;
65035;SDS011;51603;49.300;8.880;2022-09-30T09:15:55;12.37;;;11.10;;
65035;SDS011;51603;49.300;8.880;2022-09-30T09:18:30;11.87;;;10.67;;
65035;SDS011;51603;49.300;8.880;2022-09-30T09:21:16;12.67;;;11.47;;
65035;SDS011;51603;49.300;8.880;2022-09-30T09:23:45;13.27;;;11.87;;
65035;SDS011;51603;49.300;8.880;2022-09-30T09:26:16;13.00;;;11.70;;
65035;SDS011;51603;49.300;8.880;2022-09-30T09:31:44;11.97;;;10.67;;
65035;SDS011;51603;49.300;8.880;2022-09-30T09:34:12;12.73;;;11.43;;
65035;SDS011;51603;49.300;8.880;2022-09-30T09:39:51;15.33;;;11.53;;
65035;SDS011;51603;49.300;8.880;2022-09-30T09:42:34;12.77;;;11.27;;
65035;SDS011;51603;49.300;8.880;2022-09-30T09:45:17;12.70;;;11.30;;
65035;SDS011;51603;49.300;8.880;2022-09-30T09:47:57;15.23;;;12.73;;
65035;SDS011;51603;49.300;8.880;2022-09-30T09:53:20;12.40;;;11.20;;
65035;SDS011;51603;49.300;8.880;2022-09-30T09:56:04;11.47;;;10.30;;
65035;SDS011;51603;49.300;8.880;2022-09-30T09:59:02;12.63;;;10.43;;
65035;SDS011;51603;49.300;8.880;2022-09-30T10:01:45;13.03;;;11.50;;
65035;SDS011;51603;49.300;8.880;2022-09-30T10:04:16;12.67;;;11.53;;
65035;SDS011;51603;49.300;8.880;2022-09-30T10:06:45;13.23;;;10.77;;
65035;SDS011;51603;49.300;8.880;2022-09-30T10:14:40;10.10;;;9.20;;
65035;SDS011;51603;49.300;8.880;2022-09-30T10:19:47;8.90;;;8.10;;
65035;SDS011;51603;49.300;8.880;2022-09-30T10:22:16;10.30;;;9.20;;
65035;SDS011;51603;49.300;8.880;2022-09-30T10:24:44;8.80;;;8.00;;
65035;SDS011;51603;49.300;8.880;2022-09-30T10:27:29;9.27;;;8.37;;
65035;SDS011;51603;49.300;8.880;2022-09-30T10:29:56;10.00;;;9.00;;
65035;SDS011;51603;49.300;8.880;2022-09-30T10:32:23;10.67;;;8.70;;
65035;SDS011;51603;49.300;8.880;2022-09-30T10:34:53;10.63;;;8.20;;
65035;SDS011;51603;49.300;8.880;2022-09-30T10:37:23;8.73;;;7.83;;
65035;SDS011;51603;49.300;8.880;2022-09-30T10:39:51;8.33;;;7.47;;
65035;SDS011;51603;49.300;8.880;2022-09-30T10:42:23;7.87;;;7.07;;
65035;SDS011;51603;49.300;8.880;2022-09-30T10:44:54;9.27;;;7.20;;
65035;SDS011;51603;49.300;8.880;2022-09-30T10:47:21;8.60;;;7.73;;
65035;SDS011;51603;49.300;8.880;2022-09-30T10:49:51;8.33;;;7.50;;
65035;SDS011;51603;49.300;8.880;2022-09-30T10:52:19;8.53;;;7.63;;
65035;SDS011;51603;49.300;8.880;2022-09-30T10:54:52;9.00;;;8.10;;
65035;SDS011;51603;49.300;8.880;2022-09-30T10:57:23;9.03;;;7.50;;
65035;SDS011;51603;49.300;8.880;2022-09-30T10:59:51;9.13;;;8.23;;
65035;SDS011;51603;49.300;8.880;2022-09-30T11:05:04;10.77;;;8.30;;
65035;SDS011;51603;49.300;8.880;2022-09-30T11:10:29;8.87;;;7.97;;
65035;SDS011;51603;49.300;8.880;2022-09-30T11:18:33;9.93;;;8.60;;
65035;SDS011;51603;49.300;8.880;2022-09-30T11:21:15;9.47;;;7.30;;
65035;SDS011;51603;49.300;8.880;2022-09-30T11:23:52;10.00;;;9.00;;
65035;SDS011;51603;49.300;8.880;2022-09-30T11:26:44;8.70;;;7.80;;
65035;SDS011;51603;49.300;8.880;2022-09-30T11:29:26;7.30;;;6.70;;
65035;SDS011;51603;49.300;8.880;2022-09-30T11:37:53;8.83;;;5.97;;
65035;SDS011;51603;49.300;8.880;2022-09-30T11:43:39;7.80;;;5.10;;
65035;SDS011;51603;49.300;8.880;2022-09-30T11:46:48;7.80;;;5.13;;
65035;SDS011;51603;49.300;8.880;2022-09-30T11:49:37;5.73;;;5.10;;
65035;SDS011;51603;49.300;8.880;2022-09-30T11:52:59;5.90;;;5.30;;
65035;SDS011;51603;49.300;8.880;2022-09-30T11:58:22;8.27;;;6.03;;
65035;SDS011;51603;49.300;8.880;2022-09-30T12:00:57;6.90;;;5.63;;
65035;SDS011;51603;49.300;8.880;2022-09-30T12:03:35;5.10;;;4.60;;
65035;SDS011;51603;49.300;8.880;2022-09-30T12:06:10;5.93;;;5.20;;
65035;SDS011;51603;49.300;8.880;2022-09-30T12:08:47;6.87;;;5.23;;
65035;SDS011;51603;49.300;8.880;2022-09-30T12:11:17;7.10;;;5.53;;
65035;SDS011;51603;49.300;8.880;2022-09-30T12:13:53;4.20;;;3.77;;
65035;SDS011;51603;49.300;8.880;2022-09-30T12:16:23;5.07;;;4.57;;
65035;SDS011;51603;49.300;8.880;2022-09-30T12:18:54;5.53;;;5.00;;
65035;SDS011;51603;49.300;8.880;2022-09-30T12:22:04;4.83;;;3.93;;
65035;SDS011;51603;49.300;8.880;2022-09-30T12:24:38;4.83;;;3.67;;
65035;SDS011;51603;49.300;8.880;2022-09-30T12:27:16;5.23;;;3.80;;
65035;SDS011;51603;49.300;8.880;2022-09-30T12:30:02;7.63;;;3.93;;
65035;SDS011;51603;49.300;8.880;2022-09-30T12:38:40;5.93;;;3.80;;
65035;SDS011;51603;49.300;8.880;2022-09-30T12:46:40;5.33;;;3.93;;
65035;SDS011;51603;49.300;8.880;2022-09-30T12:49:18;5.50;;;3.80;;
65035;SDS011;51603;49.300;8.880;2022-09-30T12:51:48;6.30;;;4.33;;
65035;SDS011;51603;49.300;8.880;2022-09-30T12:54:18;5.10;;;4.00;;
65035;SDS011;51603;49.300;8.880;2022-09-30T12:56:52;4.53;;;3.53;;
65035;SDS011;51603;49.300;8.880;2022-09-30T12:59:27;3.90;;;3.03;;
65035;SDS011;51603;49.300;8.880;2022-09-30T13:01:56;4.03;;;2.80;;
65035;SDS011;51603;49.300;8.880;2022-09-30T13:04:36;2.83;;;2.13;;
65035;SDS011;51603;49.300;8.880;2022-09-30T13:07:09;5.13;;;3.17;;
65035;SDS011;51603;49.300;8.880;2022-09-30T13:09:59;3.50;;;3.00;;
65035;SDS011;51603;49.300;8.880;2022-09-30T13:12:43;3.93;;;3.03;;
65035;SDS011;51603;49.300;8.880;2022-09-30T13:15:20;3.40;;;2.40;;
65035;SDS011;51603;49.300;8.880;2022-09-30T13:18:01;6.50;;;3.30;;
65035;SDS011;51603;49.300;8.880;2022-09-30T13:21:15;3.07;;;2.23;;
65035;SDS011;51603;49.300;8.880;2022-09-30T13:23:45;2.50;;;2.30;;
65035;SDS011;51603;49.300;8.880;2022-09-30T13:28:53;4.97;;;2.70;;
65035;SDS011;51603;49.300;8.880;2022-09-30T13:34:21;6.63;;;3.27;;
65035;SDS011;51603;49.300;8.880;2022-09-30T13:39:20;4.10;;;3.00;;
65035;SDS011;51603;49.300;8.880;2022-09-30T13:42:11;2.63;;;2.40;;
65035;SDS011;51603;49.300;8.880;2022-09-30T13:47:44;4.53;;;3.07;;
65035;SDS011;51603;49.300;8.880;2022-09-30T13:52:54;5.83;;;3.33;;
65035;SDS011;51603;49.300;8.880;2022-09-30T13:55:24;4.70;;;4.20;;
65035;SDS011;51603;49.300;8.880;2022-09-30T14:00:24;5.40;;;3.30;;
65035;SDS011;51603;49.300;8.880;2022-09-30T14:03:06;3.23;;;2.67;;
65035;SDS011;51603;49.300;8.880;2022-09-30T14:19:28;4.80;;;3.53;;
65035;SDS011;51603;49.300;8.880;2022-09-30T14:22:17;3.83;;;2.83;;
65035;SDS011;51603;49.300;8.880;2022-09-30T14:24:44;4.27;;;3.87;;
65035;SDS011;51603;49.300;8.880;2022-09-30T14:32:46;3.20;;;2.80;;
65035;SDS011;51603;49.300;8.880;2022-09-30T14:35:23;4.07;;;3.30;;
65035;SDS011;51603;49.300;8.880;2022-09-30T14:37:53;5.03;;;2.83;;
65035;SDS011;51603;49.300;8.880;2022-09-30T14:40:27;4.40;;;2.80;;
65035;SDS011;51603;49.300;8.880;2022-09-30T14:42:58;3.10;;;2.73;;
65035;SDS011;51603;49.300;8.880;2022-09-30T14:45:29;2.70;;;2.20;;
65035;SDS011;51603;49.300;8.880;2022-09-30T14:48:12;3.23;;;2.90;;
65035;SDS011;51603;49.300;8.880;2022-09-30T14:51:04;4.00;;;2.90;;
65035;SDS011;51603;49.300;8.880;2022-09-30T14:53:34;5.47;;;3.33;;
65035;SDS011;51603;49.300;8.880;2022-09-30T14:56:02;5.20;;;3.60;;
65035;SDS011;51603;49.300;8.880;2022-09-30T14:58:43;3.53;;;3.23;;
65035;SDS011;51603;49.300;8.880;2022-09-30T15:01:13;5.67;;;3.77;;
65035;SDS011;51603;49.300;8.880;2022-09-30T15:03:45;6.23;;;2.77;;
65035;SDS011;51603;49.300;8.880;2022-09-30T15:06:37;6.23;;;3.17;;
65035;SDS011;51603;49.300;8.880;2022-09-30T15:12:14;5.50;;;3.93;;
65035;SDS011;51603;49.300;8.880;2022-09-30T15:14:45;6.40;;;4.87;;
65035;SDS011;51603;49.300;8.880;2022-09-30T15:17:18;5.17;;;3.37;;
65035;SDS011;51603;49.300;8.880;2022-09-30T15:20:27;8.53;;;7.17;;
65035;SDS011;51603;49.300;8.880;2022-09-30T15:22:53;4.90;;;4.03;;
65035;SDS011;51603;49.300;8.880;2022-09-30T15:25:20;11.10;;;8.10;;
65035;SDS011;51603;49.300;8.880;2022-09-30T15:27:46;5.93;;;5.43;;
65035;SDS011;51603;49.300;8.880;2022-09-30T15:32:39;6.60;;;3.70;;
65035;SDS011;51603;49.300;8.880;2022-09-30T15:35:06;6.00;;;3.90;;
65035;SDS011;51603;49.300;8.880;2022-09-30T15:37:39;4.00;;;3.40;;
65035;SDS011;51603;49.300;8.880;2022-09-30T15:40:11;4.77;;;4.07;;
65035;SDS011;51603;49.300;8.880;2022-09-30T15:42:58;4.30;;;3.30;;
65035;SDS011;51603;49.300;8.880;2022-09-30T15:45:34;5.07;;;4.13;;
65035;SDS011;51603;49.300;8.880;2022-09-30T15:50:48;5.43;;;3.20;;
65035;SDS011;51603;49.300;8.880;2022-09-30T15:53:19;2.90;;;2.70;;
65035;SDS011;51603;49.300;8.880;2022-09-30T15:55:46;4.73;;;4.17;;
65035;SDS011;51603;49.300;8.880;2022-09-30T15:58:33;5.23;;;4.73;;
65035;SDS011;51603;49.300;8.880;2022-09-30T16:03:59;6.20;;;3.40;;
65035;SDS011;51603;49.300;8.880;2022-09-30T16:07:13;4.83;;;3.60;;
65035;SDS011;51603;49.300;8.880;2022-09-30T16:11:48;6.23;;;5.20;;
65035;SDS011;51603;49.300;8.880;2022-09-30T16:14:28;7.37;;;4.77;;
65035;SDS011;51603;49.300;8.880;2022-09-30T16:17:04;6.03;;;4.50;;
65035;SDS011;51603;49.300;8.880;2022-09-30T16:19:31;8.53;;;3.70;;
65035;SDS011;51603;49.300;8.880;2022-09-30T16:21:57;4.07;;;3.60;;
65035;SDS011;51603;49.300;8.880;2022-09-30T16:26:56;4.87;;;3.37;;
65035;SDS011;51603;49.300;8.880;2022-09-30T16:29:23;3.57;;;2.77;;
65035;SDS011;51603;49.300;8.880;2022-09-30T16:31:52;3.47;;;3.17;;
65035;SDS011;51603;49.300;8.880;2022-09-30T16:36:49;5.43;;;4.80;;
65035;SDS011;51603;49.300;8.880;2022-09-30T16:39:17;4.27;;;3.73;;
65035;SDS011;51603;49.300;8.880;2022-09-30T16:41:43;8.13;;;5.70;;
65035;SDS011;51603;49.300;8.880;2022-09-30T16:44:09;4.67;;;3.77;;
65035;SDS011;51603;49.300;8.880;2022-09-30T16:46:35;6.67;;;5.27;;
65035;SDS011;51603;49.300;8.880;2022-09-30T16:49:10;6.87;;;4.60;;
65035;SDS011;51603;49.300;8.880;2022-09-30T16:51:41;4.73;;;4.27;;
65035;SDS011;51603;49.300;8.880;2022-09-30T16:54:07;6.40;;;4.13;;
65035;SDS011;51603;49.300;8.880;2022-09-30T16:56:34;7.67;;;6.67;;
65035;SDS011;51603;49.300;8.880;2022-09-30T16:58:59;12.40;;;10.63;;
65035;SDS011;51603;49.300;8.880;2022-09-30T17:01:25;26.90;;;20.40;;
65035;SDS011;51603;49.300;8.880;2022-09-30T17:03:51;22.97;;;18.77;;
65035;SDS011;51603;49.300;8.880;2022-09-30T17:06:19;18.93;;;16.63;;
65035;SDS011;51603;49.300;8.880;2022-09-30T17:08:51;14.83;;;12.07;;
65035;SDS011;51603;49.300;8.880;2022-09-30T17:11:27;15.10;;;13.03;;
65035;SDS011;51603;49.300;8.880;2022-09-30T17:13:55;14.67;;;11.27;;
65035;SDS011;51603;49.300;8.880;2022-09-30T17:16:21;11.40;;;9.87;;
65035;SDS011;51603;49.300;8.880;2022-09-30T17:18:47;15.40;;;13.50;;
65035;SDS011;51603;49.300;8.880;2022-09-30T17:21:17;19.20;;;17.10;;
65035;SDS011;51603;49.300;8.880;2022-09-30T17:23:43;16.80;;;15.10;;
65035;SDS011;51603;49.300;8.880;2022-09-30T17:26:08;15.60;;;13.97;;
65035;SDS011;51603;49.300;8.880;2022-09-30T17:28:34;14.20;;;11.90;;
65035;SDS011;51603;49.300;8.880;2022-09-30T17:31:00;11.90;;;10.70;;
65035;SDS011;51603;49.300;8.880;2022-09-30T17:33:32;13.27;;;11.87;;
65035;SDS011;51603;49.300;8.880;2022-09-30T17:36:00;16.77;;;12.77;;
65035;SDS011;51603;49.300;8.880;2022-09-30T17:38:28;16.03;;;14.40;;
65035;SDS011;51603;49.300;8.880;2022-09-30T17:40:54;11.37;;;10.17;;
65035;SDS011;51603;49.300;8.880;2022-09-30T17:43:38;10.67;;;9.67;;
65035;SDS011;51603;49.300;8.880;2022-09-30T17:46:04;11.63;;;10.43;;
65035;SDS011;51603;49.300;8.880;2022-09-30T17:48:30;15.97;;;10.87;;
65035;SDS011;51603;49.300;8.880;2022-09-30T17:50:56;13.47;;;12.17;;
65035;SDS011;51603;49.300;8.880;2022-09-30T17:53:21;18.93;;;17.13;;
65035;SDS011;51603;49.300;8.880;2022-09-30T17:55:48;21.03;;;18.97;;
65035;SDS011;51603;49.300;8.880;2022-09-30T17:58:30;21.20;;;19.00;;
65035;SDS011;51603;49.300;8.880;2022-09-30T18:00:56;23.23;;;20.73;;
65035;SDS011;51603;49.300;8.880;2022-09-30T18:03:23;18.73;;;16.80;;